sensor_id;sensor_type;location;lat;lon;timestamp;temperature;humidity
75387;DHT22;63966;47.914;22.266;2023-04-09T00:01:11;5.79;82.36
75387;DHT22;63966;47.914;22.266;2023-04-09T00:04:14;5.76;82.26
75387;DHT22;63966;47.914;22.266;2023-04-09T00:07:18;5.69;82.47
75387;DHT22;63966;47.914;22.266;2023-04-09T00:10:21;5.76;82.42
75387;DHT22;63966;47.914;22.266;2023-04-09T00:13:25;5.82;82.18
75387;DHT22;63966;47.914;22.266;2023-04-09T00:16:41;5.85;81.86
75387;DHT22;63966;47.914;22.266;2023-04-09T00:19:45;5.89;81.65
75387;DHT22;63966;47.914;22.266;2023-04-09T00:22:48;5.90;81.61
75387;DHT22;63966;47.914;22.266;2023-04-09T00:25:53;5.93;81.64
75387;DHT22;63966;47.914;22.266;2023-04-09T00:28:57;5.88;81.96
75387;DHT22;63966;47.914;22.266;2023-04-09T00:32:00;5.88;81.87
75387;DHT22;63966;47.914;22.266;2023-04-09T00:35:04;5.85;82.13
75387;DHT22;63966;47.914;22.266;2023-04-09T00:38:08;5.85;82.21
75387;DHT22;63966;47.914;22.266;2023-04-09T00:41:12;5.88;82.22
75387;DHT22;63966;47.914;22.266;2023-04-09T00:44:15;5.88;82.10
75387;DHT22;63966;47.914;22.266;2023-04-09T00:47:18;5.82;82.88
75387;DHT22;63966;47.914;22.266;2023-04-09T00:50:22;5.78;83.55
75387;DHT22;63966;47.914;22.266;2023-04-09T00:53:25;5.81;83.10
75387;DHT22;63966;47.914;22.266;2023-04-09T00:56:29;5.81;83.12
75387;DHT22;63966;47.914;22.266;2023-04-09T00:59:33;5.78;83.16
75387;DHT22;63966;47.914;22.266;2023-04-09T01:02:37;5.76;83.44
75387;DHT22;63966;47.914;22.266;2023-04-09T01:06:06;5.81;83.24
75387;DHT22;63966;47.914;22.266;2023-04-09T01:09:34;5.65;83.57
75387;DHT22;63966;47.914;22.266;2023-04-09T01:16:24;5.63;84.18
75387;DHT22;63966;47.914;22.266;2023-04-09T01:19:45;5.61;84.26
75387;DHT22;63966;47.914;22.266;2023-04-09T01:23:02;5.65;84.06
75387;DHT22;63966;47.914;22.266;2023-04-09T01:26:10;5.62;83.96
75387;DHT22;63966;47.914;22.266;2023-04-09T01:29:23;5.69;83.80
75387;DHT22;63966;47.914;22.266;2023-04-09T01:32:28;5.66;84.19
75387;DHT22;63966;47.914;22.266;2023-04-09T01:35:34;5.65;84.70
75387;DHT22;63966;47.914;22.266;2023-04-09T01:38:42;5.65;84.22
75387;DHT22;63966;47.914;22.266;2023-04-09T01:41:48;5.52;84.70
75387;DHT22;63966;47.914;22.266;2023-04-09T01:44:53;5.55;85.30
75387;DHT22;63966;47.914;22.266;2023-04-09T01:47:57;5.58;85.21
75387;DHT22;63966;47.914;22.266;2023-04-09T01:51:01;5.51;84.94
75387;DHT22;63966;47.914;22.266;2023-04-09T01:54:04;5.52;85.35
75387;DHT22;63966;47.914;22.266;2023-04-09T01:57:08;5.50;85.64
75387;DHT22;63966;47.914;22.266;2023-04-09T02:00:12;5.47;85.84
75387;DHT22;63966;47.914;22.266;2023-04-09T02:03:24;5.55;85.31
75387;DHT22;63966;47.914;22.266;2023-04-09T02:09:47;5.47;85.59
75387;DHT22;63966;47.914;22.266;2023-04-09T02:12:52;5.40;85.69
75387;DHT22;63966;47.914;22.266;2023-04-09T02:15:58;5.50;85.38
75387;DHT22;63966;47.914;22.266;2023-04-09T02:19:02;5.45;85.39
75387;DHT22;63966;47.914;22.266;2023-04-09T02:22:06;5.51;85.31
75387;DHT22;63966;47.914;22.266;2023-04-09T02:25:09;5.37;85.75
75387;DHT22;63966;47.914;22.266;2023-04-09T02:28:13;5.35;85.98
75387;DHT22;63966;47.914;22.266;2023-04-09T02:31:17;5.34;86.11
75387;DHT22;63966;47.914;22.266;2023-04-09T02:34:22;5.34;86.19
75387;DHT22;63966;47.914;22.266;2023-04-09T02:37:25;5.19;86.70
75387;DHT22;63966;47.914;22.266;2023-04-09T02:40:29;5.14;87.21
75387;DHT22;63966;47.914;22.266;2023-04-09T02:43:32;5.07;87.41
75387;DHT22;63966;47.914;22.266;2023-04-09T02:46:37;4.99;87.53
75387;DHT22;63966;47.914;22.266;2023-04-09T02:49:40;5.03;87.59
75387;DHT22;63966;47.914;22.266;2023-04-09T02:52:45;5.06;87.57
75387;DHT22;63966;47.914;22.266;2023-04-09T02:55:49;5.06;87.46
75387;DHT22;63966;47.914;22.266;2023-04-09T02:58:52;5.01;87.52
75387;DHT22;63966;47.914;22.266;2023-04-09T03:01:57;5.01;87.75
75387;DHT22;63966;47.914;22.266;2023-04-09T03:05:01;5.01;87.72
75387;DHT22;63966;47.914;22.266;2023-04-09T03:08:05;4.99;87.75
75387;DHT22;63966;47.914;22.266;2023-04-09T03:11:09;5.03;87.63
75387;DHT22;63966;47.914;22.266;2023-04-09T03:14:13;4.97;87.74
75387;DHT22;63966;47.914;22.266;2023-04-09T03:17:16;4.89;88.32
75387;DHT22;63966;47.914;22.266;2023-04-09T03:20:22;4.71;88.64
75387;DHT22;63966;47.914;22.266;2023-04-09T03:23:25;4.66;89.14
75387;DHT22;63966;47.914;22.266;2023-04-09T03:26:29;4.72;88.97
75387;DHT22;63966;47.914;22.266;2023-04-09T03:29:40;4.85;88.70
75387;DHT22;63966;47.914;22.266;2023-04-09T03:32:43;4.99;87.93
75387;DHT22;63966;47.914;22.266;2023-04-09T03:35:48;5.00;87.72
75387;DHT22;63966;47.914;22.266;2023-04-09T03:38:57;4.97;88.00
75387;DHT22;63966;47.914;22.266;2023-04-09T03:42:09;5.06;88.00
75387;DHT22;63966;47.914;22.266;2023-04-09T03:45:21;5.03;87.98
75387;DHT22;63966;47.914;22.266;2023-04-09T03:48:26;5.17;87.55
75387;DHT22;63966;47.914;22.266;2023-04-09T03:51:32;5.12;87.67
75387;DHT22;63966;47.914;22.266;2023-04-09T03:54:36;5.04;87.81
75387;DHT22;63966;47.914;22.266;2023-04-09T03:57:46;5.01;87.93
75387;DHT22;63966;47.914;22.266;2023-04-09T04:00:53;5.04;87.91
75387;DHT22;63966;47.914;22.266;2023-04-09T04:04:22;4.94;87.98
75387;DHT22;63966;47.914;22.266;2023-04-09T04:07:31;4.87;88.38
75387;DHT22;63966;47.914;22.266;2023-04-09T04:10:42;4.93;88.26
75387;DHT22;63966;47.914;22.266;2023-04-09T04:13:47;4.92;88.29
75387;DHT22;63966;47.914;22.266;2023-04-09T04:16:51;4.99;88.24
75387;DHT22;63966;47.914;22.266;2023-04-09T04:19:57;4.97;88.03
75387;DHT22;63966;47.914;22.266;2023-04-09T04:23:02;4.90;88.21
75387;DHT22;63966;47.914;22.266;2023-04-09T04:26:07;4.86;88.66
75387;DHT22;63966;47.914;22.266;2023-04-09T04:29:12;4.85;88.65
75387;DHT22;63966;47.914;22.266;2023-04-09T04:32:29;4.85;88.75
75387;DHT22;63966;47.914;22.266;2023-04-09T04:35:37;4.97;88.56
75387;DHT22;63966;47.914;22.266;2023-04-09T04:38:43;5.09;88.07
75387;DHT22;63966;47.914;22.266;2023-04-09T04:41:55;5.20;87.57
75387;DHT22;63966;47.914;22.266;2023-04-09T04:45:02;5.37;87.12
75387;DHT22;63966;47.914;22.266;2023-04-09T04:48:22;6.59;84.37
75387;DHT22;63966;47.914;22.266;2023-04-09T04:51:27;8.56;78.47
75387;DHT22;63966;47.914;22.266;2023-04-09T04:54:38;10.18;71.43
75387;DHT22;63966;47.914;22.266;2023-04-09T04:57:42;10.84;67.52
75387;DHT22;63966;47.914;22.266;2023-04-09T05:00:47;11.36;66.83
75387;DHT22;63966;47.914;22.266;2023-04-09T05:03:50;11.89;64.35
75387;DHT22;63966;47.914;22.266;2023-04-09T05:07:07;12.52;61.22
75387;DHT22;63966;47.914;22.266;2023-04-09T05:10:13;12.71;60.14
75387;DHT22;63966;47.914;22.266;2023-04-09T05:13:18;13.17;59.20
75387;DHT22;63966;47.914;22.266;2023-04-09T05:16:22;13.58;56.89
75387;DHT22;63966;47.914;22.266;2023-04-09T05:19:34;13.23;58.00
75387;DHT22;63966;47.914;22.266;2023-04-09T05:22:39;13.54;57.33
75387;DHT22;63966;47.914;22.266;2023-04-09T05:25:42;14.04;56.06
75387;DHT22;63966;47.914;22.266;2023-04-09T05:29:10;13.37;57.18
75387;DHT22;63966;47.914;22.266;2023-04-09T05:32:13;13.33;57.59
75387;DHT22;63966;47.914;22.266;2023-04-09T05:35:18;13.44;58.96
75387;DHT22;63966;47.914;22.266;2023-04-09T05:38:22;12.76;60.22
75387;DHT22;63966;47.914;22.266;2023-04-09T05:41:31;13.33;59.65
75387;DHT22;63966;47.914;22.266;2023-04-09T05:44:51;14.22;54.76
75387;DHT22;63966;47.914;22.266;2023-04-09T05:47:56;15.11;52.56
75387;DHT22;63966;47.914;22.266;2023-04-09T05:51:00;15.43;51.57
75387;DHT22;63966;47.914;22.266;2023-04-09T05:54:04;15.44;51.90
75387;DHT22;63966;47.914;22.266;2023-04-09T05:57:11;15.97;50.20
75387;DHT22;63966;47.914;22.266;2023-04-09T06:00:18;16.36;48.89
75387;DHT22;63966;47.914;22.266;2023-04-09T06:03:24;16.51;47.37
75387;DHT22;63966;47.914;22.266;2023-04-09T06:06:29;15.61;51.81
75387;DHT22;63966;47.914;22.266;2023-04-09T06:09:32;15.02;51.62
75387;DHT22;63966;47.914;22.266;2023-04-09T06:12:37;14.96;51.91
75387;DHT22;63966;47.914;22.266;2023-04-09T06:15:40;14.20;54.19
75387;DHT22;63966;47.914;22.266;2023-04-09T06:18:44;13.55;55.58
75387;DHT22;63966;47.914;22.266;2023-04-09T06:21:48;14.57;53.68
75387;DHT22;63966;47.914;22.266;2023-04-09T06:24:52;15.73;50.40
75387;DHT22;63966;47.914;22.266;2023-04-09T06:27:55;14.64;52.23
75387;DHT22;63966;47.914;22.266;2023-04-09T06:30:59;13.44;56.49
75387;DHT22;63966;47.914;22.266;2023-04-09T06:34:03;12.88;58.44
75387;DHT22;63966;47.914;22.266;2023-04-09T06:37:06;12.33;60.27
75387;DHT22;63966;47.914;22.266;2023-04-09T06:40:10;12.24;60.29
75387;DHT22;63966;47.914;22.266;2023-04-09T06:43:13;13.54;56.30
75387;DHT22;63966;47.914;22.266;2023-04-09T06:46:25;13.50;55.53
75387;DHT22;63966;47.914;22.266;2023-04-09T06:49:29;13.16;58.02
75387;DHT22;63966;47.914;22.266;2023-04-09T06:52:33;12.86;59.55
75387;DHT22;63966;47.914;22.266;2023-04-09T06:55:36;13.21;60.25
75387;DHT22;63966;47.914;22.266;2023-04-09T06:58:40;13.44;57.75
75387;DHT22;63966;47.914;22.266;2023-04-09T07:01:43;14.19;54.86
75387;DHT22;63966;47.914;22.266;2023-04-09T07:04:47;13.85;55.49
75387;DHT22;63966;47.914;22.266;2023-04-09T07:07:50;13.41;56.33
75387;DHT22;63966;47.914;22.266;2023-04-09T07:10:54;13.41;56.43
75387;DHT22;63966;47.914;22.266;2023-04-09T07:13:58;13.31;56.10
75387;DHT22;63966;47.914;22.266;2023-04-09T07:17:01;14.46;54.38
75387;DHT22;63966;47.914;22.266;2023-04-09T07:20:05;14.06;54.92
75387;DHT22;63966;47.914;22.266;2023-04-09T07:23:09;16.59;48.52
75387;DHT22;63966;47.914;22.266;2023-04-09T07:26:12;18.47;45.10
75387;DHT22;63966;47.914;22.266;2023-04-09T07:29:16;19.19;41.02
75387;DHT22;63966;47.914;22.266;2023-04-09T07:32:19;19.55;38.38
75387;DHT22;63966;47.914;22.266;2023-04-09T07:35:23;19.78;38.87
75387;DHT22;63966;47.914;22.266;2023-04-09T07:38:28;19.58;40.50
75387;DHT22;63966;47.914;22.266;2023-04-09T07:41:32;19.68;39.78
75387;DHT22;63966;47.914;22.266;2023-04-09T07:44:36;19.72;41.07
75387;DHT22;63966;47.914;22.266;2023-04-09T07:47:39;20.11;38.80
75387;DHT22;63966;47.914;22.266;2023-04-09T07:50:44;20.25;37.86
75387;DHT22;63966;47.914;22.266;2023-04-09T07:53:47;20.92;36.47
75387;DHT22;63966;47.914;22.266;2023-04-09T07:56:51;20.46;37.71
75387;DHT22;63966;47.914;22.266;2023-04-09T07:59:54;20.15;38.72
75387;DHT22;63966;47.914;22.266;2023-04-09T08:02:58;20.40;37.46
75387;DHT22;63966;47.914;22.266;2023-04-09T08:06:03;20.59;37.86
75387;DHT22;63966;47.914;22.266;2023-04-09T08:09:06;21.08;36.96
75387;DHT22;63966;47.914;22.266;2023-04-09T08:12:10;21.39;37.72
75387;DHT22;63966;47.914;22.266;2023-04-09T08:15:17;21.24;34.78
75387;DHT22;63966;47.914;22.266;2023-04-09T08:18:21;21.38;34.58
75387;DHT22;63966;47.914;22.266;2023-04-09T08:21:25;21.60;36.35
75387;DHT22;63966;47.914;22.266;2023-04-09T08:24:28;21.24;34.51
75387;DHT22;63966;47.914;22.266;2023-04-09T08:27:32;21.09;36.01
75387;DHT22;63966;47.914;22.266;2023-04-09T08:30:36;21.70;35.66
75387;DHT22;63966;47.914;22.266;2023-04-09T08:33:40;21.76;35.35
75387;DHT22;63966;47.914;22.266;2023-04-09T08:36:45;21.09;36.89
75387;DHT22;63966;47.914;22.266;2023-04-09T08:39:49;19.51;39.61
75387;DHT22;63966;47.914;22.266;2023-04-09T08:42:55;17.93;40.36
75387;DHT22;63966;47.914;22.266;2023-04-09T08:46:01;17.00;41.85
75387;DHT22;63966;47.914;22.266;2023-04-09T08:49:08;15.89;44.37
75387;DHT22;63966;47.914;22.266;2023-04-09T08:52:13;15.12;45.22
75387;DHT22;63966;47.914;22.266;2023-04-09T08:55:19;14.98;48.08
75387;DHT22;63966;47.914;22.266;2023-04-09T08:58:22;14.94;45.99
75387;DHT22;63966;47.914;22.266;2023-04-09T09:01:28;14.32;48.03
75387;DHT22;63966;47.914;22.266;2023-04-09T09:04:44;14.33;47.57
75387;DHT22;63966;47.914;22.266;2023-04-09T09:07:54;14.80;46.56
75387;DHT22;63966;47.914;22.266;2023-04-09T09:10:58;14.33;47.56
75387;DHT22;63966;47.914;22.266;2023-04-09T09:14:10;13.74;50.41
75387;DHT22;63966;47.914;22.266;2023-04-09T09:17:13;13.71;50.83
75387;DHT22;63966;47.914;22.266;2023-04-09T09:20:21;13.72;50.51
75387;DHT22;63966;47.914;22.266;2023-04-09T09:23:34;13.99;51.48
75387;DHT22;63966;47.914;22.266;2023-04-09T09:26:38;14.53;49.71
75387;DHT22;63966;47.914;22.266;2023-04-09T09:29:43;15.40;44.31
75387;DHT22;63966;47.914;22.266;2023-04-09T09:33:07;15.74;45.52
75387;DHT22;63966;47.914;22.266;2023-04-09T09:36:11;15.90;42.63
75387;DHT22;63966;47.914;22.266;2023-04-09T09:39:15;15.97;44.68
75387;DHT22;63966;47.914;22.266;2023-04-09T09:42:20;15.42;44.88
75387;DHT22;63966;47.914;22.266;2023-04-09T09:45:24;14.83;45.11
75387;DHT22;63966;47.914;22.266;2023-04-09T09:48:28;14.53;45.54
75387;DHT22;63966;47.914;22.266;2023-04-09T09:51:38;14.27;48.42
75387;DHT22;63966;47.914;22.266;2023-04-09T09:54:43;14.41;47.43
75387;DHT22;63966;47.914;22.266;2023-04-09T09:57:49;15.54;46.98
75387;DHT22;63966;47.914;22.266;2023-04-09T10:00:55;15.97;46.60
75387;DHT22;63966;47.914;22.266;2023-04-09T10:04:01;15.50;44.89
75387;DHT22;63966;47.914;22.266;2023-04-09T10:07:06;15.35;46.20
75387;DHT22;63966;47.914;22.266;2023-04-09T10:10:10;14.75;46.67
75387;DHT22;63966;47.914;22.266;2023-04-09T10:13:18;14.34;50.48
75387;DHT22;63966;47.914;22.266;2023-04-09T10:16:25;14.60;48.33
75387;DHT22;63966;47.914;22.266;2023-04-09T10:19:30;14.59;49.80
75387;DHT22;63966;47.914;22.266;2023-04-09T10:22:38;14.53;47.76
75387;DHT22;63966;47.914;22.266;2023-04-09T10:25:42;14.89;47.43
75387;DHT22;63966;47.914;22.266;2023-04-09T10:28:46;15.38;47.63
75387;DHT22;63966;47.914;22.266;2023-04-09T10:32:08;15.46;48.86
75387;DHT22;63966;47.914;22.266;2023-04-09T10:35:12;15.33;46.92
75387;DHT22;63966;47.914;22.266;2023-04-09T10:38:41;15.21;46.47
75387;DHT22;63966;47.914;22.266;2023-04-09T10:41:48;14.91;48.21
75387;DHT22;63966;47.914;22.266;2023-04-09T10:48:12;15.38;45.39
75387;DHT22;63966;47.914;22.266;2023-04-09T10:51:18;15.33;45.17
75387;DHT22;63966;47.914;22.266;2023-04-09T10:54:48;15.67;43.73
75387;DHT22;63966;47.914;22.266;2023-04-09T10:57:53;15.66;45.44
75387;DHT22;63966;47.914;22.266;2023-04-09T11:01:01;15.71;45.35
75387;DHT22;63966;47.914;22.266;2023-04-09T11:04:11;15.52;42.32
75387;DHT22;63966;47.914;22.266;2023-04-09T11:07:21;15.53;44.79
75387;DHT22;63966;47.914;22.266;2023-04-09T11:10:26;15.60;45.42
75387;DHT22;63966;47.914;22.266;2023-04-09T11:13:31;15.74;43.80
75387;DHT22;63966;47.914;22.266;2023-04-09T11:16:35;15.42;45.78
75387;DHT22;63966;47.914;22.266;2023-04-09T11:19:38;15.09;43.76
75387;DHT22;63966;47.914;22.266;2023-04-09T11:22:42;15.39;45.09
75387;DHT22;63966;47.914;22.266;2023-04-09T11:25:48;15.38;45.84
75387;DHT22;63966;47.914;22.266;2023-04-09T11:28:55;15.31;43.47
75387;DHT22;63966;47.914;22.266;2023-04-09T11:32:00;15.32;43.73
75387;DHT22;63966;47.914;22.266;2023-04-09T11:35:09;15.42;43.54
75387;DHT22;63966;47.914;22.266;2023-04-09T11:38:15;15.59;43.63
75387;DHT22;63966;47.914;22.266;2023-04-09T11:41:18;15.66;42.31
75387;DHT22;63966;47.914;22.266;2023-04-09T11:44:22;15.93;42.72
75387;DHT22;63966;47.914;22.266;2023-04-09T11:47:25;15.86;46.46
75387;DHT22;63966;47.914;22.266;2023-04-09T11:50:30;16.00;42.82
75387;DHT22;63966;47.914;22.266;2023-04-09T11:53:36;16.09;42.83
75387;DHT22;63966;47.914;22.266;2023-04-09T11:56:40;16.09;41.92
75387;DHT22;63966;47.914;22.266;2023-04-09T11:59:44;15.74;43.39
75387;DHT22;63966;47.914;22.266;2023-04-09T12:02:49;15.70;43.04
75387;DHT22;63966;47.914;22.266;2023-04-09T12:05:52;15.61;46.12
75387;DHT22;63966;47.914;22.266;2023-04-09T12:08:58;15.39;44.07
75387;DHT22;63966;47.914;22.266;2023-04-09T12:12:02;14.73;46.37
75387;DHT22;63966;47.914;22.266;2023-04-09T12:15:24;14.81;45.86
75387;DHT22;63966;47.914;22.266;2023-04-09T12:18:28;14.70;46.07
75387;DHT22;63966;47.914;22.266;2023-04-09T12:21:54;14.78;45.76
75387;DHT22;63966;47.914;22.266;2023-04-09T12:24:58;14.80;46.02
75387;DHT22;63966;47.914;22.266;2023-04-09T12:28:02;14.94;49.39
75387;DHT22;63966;47.914;22.266;2023-04-09T12:31:09;14.85;45.86
75387;DHT22;63966;47.914;22.266;2023-04-09T12:34:13;14.78;47.36
75387;DHT22;63966;47.914;22.266;2023-04-09T12:37:16;14.81;44.30
75387;DHT22;63966;47.914;22.266;2023-04-09T12:40:20;14.88;47.22
75387;DHT22;63966;47.914;22.266;2023-04-09T12:43:24;14.89;43.34
75387;DHT22;63966;47.914;22.266;2023-04-09T12:46:27;15.05;47.67
75387;DHT22;63966;47.914;22.266;2023-04-09T12:49:31;14.80;43.76
75387;DHT22;63966;47.914;22.266;2023-04-09T12:52:35;14.94;44.21
75387;DHT22;63966;47.914;22.266;2023-04-09T12:55:39;14.83;46.27
75387;DHT22;63966;47.914;22.266;2023-04-09T12:58:44;14.91;42.91
75387;DHT22;63966;47.914;22.266;2023-04-09T13:01:48;15.28;43.10
75387;DHT22;63966;47.914;22.266;2023-04-09T13:04:52;15.26;43.34
75387;DHT22;63966;47.914;22.266;2023-04-09T13:07:55;15.05;48.12
75387;DHT22;63966;47.914;22.266;2023-04-09T13:10:59;14.60;45.67
75387;DHT22;63966;47.914;22.266;2023-04-09T13:14:02;14.65;47.99
75387;DHT22;63966;47.914;22.266;2023-04-09T13:17:06;14.23;46.12
75387;DHT22;63966;47.914;22.266;2023-04-09T13:20:09;13.97;47.49
75387;DHT22;63966;47.914;22.266;2023-04-09T13:23:13;14.09;49.31
75387;DHT22;63966;47.914;22.266;2023-04-09T13:26:17;14.15;45.83
75387;DHT22;63966;47.914;22.266;2023-04-09T13:29:20;14.53;46.38
75387;DHT22;63966;47.914;22.266;2023-04-09T13:32:24;14.17;45.94
75387;DHT22;63966;47.914;22.266;2023-04-09T13:35:27;14.20;48.22
75387;DHT22;63966;47.914;22.266;2023-04-09T13:38:31;14.09;48.14
75387;DHT22;63966;47.914;22.266;2023-04-09T13:41:34;14.16;47.28
75387;DHT22;63966;47.914;22.266;2023-04-09T13:44:38;14.09;48.44
75387;DHT22;63966;47.914;22.266;2023-04-09T13:47:44;13.88;49.53
75387;DHT22;63966;47.914;22.266;2023-04-09T13:50:48;13.71;48.87
75387;DHT22;63966;47.914;22.266;2023-04-09T13:53:52;13.55;47.43
75387;DHT22;63966;47.914;22.266;2023-04-09T13:56:55;13.47;48.50
75387;DHT22;63966;47.914;22.266;2023-04-09T13:59:59;13.36;48.12
75387;DHT22;63966;47.914;22.266;2023-04-09T14:03:07;13.30;47.46
75387;DHT22;63966;47.914;22.266;2023-04-09T14:06:11;13.39;49.01
75387;DHT22;63966;47.914;22.266;2023-04-09T14:09:15;13.31;47.03
75387;DHT22;63966;47.914;22.266;2023-04-09T14:12:19;13.30;46.96
75387;DHT22;63966;47.914;22.266;2023-04-09T14:15:22;13.48;46.24
75387;DHT22;63966;47.914;22.266;2023-04-09T14:18:26;13.72;46.02
75387;DHT22;63966;47.914;22.266;2023-04-09T14:21:30;13.81;46.37
75387;DHT22;63966;47.914;22.266;2023-04-09T14:24:34;13.83;46.82
75387;DHT22;63966;47.914;22.266;2023-04-09T14:27:42;13.78;48.19
75387;DHT22;63966;47.914;22.266;2023-04-09T14:30:45;13.78;46.77
75387;DHT22;63966;47.914;22.266;2023-04-09T14:33:49;13.62;46.89
75387;DHT22;63966;47.914;22.266;2023-04-09T14:36:53;13.50;47.02
75387;DHT22;63966;47.914;22.266;2023-04-09T14:39:56;13.34;48.03
75387;DHT22;63966;47.914;22.266;2023-04-09T14:43:00;13.19;48.07
75387;DHT22;63966;47.914;22.266;2023-04-09T14:46:03;13.12;48.21
75387;DHT22;63966;47.914;22.266;2023-04-09T14:49:08;13.06;49.33
75387;DHT22;63966;47.914;22.266;2023-04-09T14:52:12;13.04;47.47
75387;DHT22;63966;47.914;22.266;2023-04-09T14:55:15;13.10;48.02
75387;DHT22;63966;47.914;22.266;2023-04-09T14:58:19;13.02;46.31
75387;DHT22;63966;47.914;22.266;2023-04-09T15:01:23;12.97;46.85
75387;DHT22;63966;47.914;22.266;2023-04-09T15:04:28;12.92;49.02
75387;DHT22;63966;47.914;22.266;2023-04-09T15:07:32;12.86;46.36
75387;DHT22;63966;47.914;22.266;2023-04-09T15:10:36;12.81;45.87
75387;DHT22;63966;47.914;22.266;2023-04-09T15:13:39;12.75;46.64
75387;DHT22;63966;47.914;22.266;2023-04-09T15:16:43;12.75;45.44
75387;DHT22;63966;47.914;22.266;2023-04-09T15:19:46;12.93;46.38
75387;DHT22;63966;47.914;22.266;2023-04-09T15:22:50;13.02;46.62
75387;DHT22;63966;47.914;22.266;2023-04-09T15:25:53;12.96;45.12
75387;DHT22;63966;47.914;22.266;2023-04-09T15:29:01;12.79;44.69
75387;DHT22;63966;47.914;22.266;2023-04-09T15:32:06;12.78;44.29
75387;DHT22;63966;47.914;22.266;2023-04-09T15:35:10;12.76;44.38
75387;DHT22;63966;47.914;22.266;2023-04-09T15:38:15;12.76;44.99
75387;DHT22;63966;47.914;22.266;2023-04-09T15:41:19;12.72;45.35
75387;DHT22;63966;47.914;22.266;2023-04-09T15:44:26;12.73;46.82
75387;DHT22;63966;47.914;22.266;2023-04-09T15:47:29;12.68;48.39
75387;DHT22;63966;47.914;22.266;2023-04-09T15:50:35;12.58;48.04
75387;DHT22;63966;47.914;22.266;2023-04-09T15:53:38;12.54;47.55
75387;DHT22;63966;47.914;22.266;2023-04-09T15:56:42;12.54;48.03
75387;DHT22;63966;47.914;22.266;2023-04-09T15:59:45;12.46;49.12
75387;DHT22;63966;47.914;22.266;2023-04-09T16:02:50;12.41;48.11
75387;DHT22;63966;47.914;22.266;2023-04-09T16:05:55;12.40;48.46
75387;DHT22;63966;47.914;22.266;2023-04-09T16:08:59;12.31;47.99
75387;DHT22;63966;47.914;22.266;2023-04-09T16:12:03;12.31;48.12
75387;DHT22;63966;47.914;22.266;2023-04-09T16:15:07;12.21;49.73
75387;DHT22;63966;47.914;22.266;2023-04-09T16:18:11;12.13;48.53
75387;DHT22;63966;47.914;22.266;2023-04-09T16:21:15;12.03;48.34
75387;DHT22;63966;47.914;22.266;2023-04-09T16:24:18;11.93;48.36
75387;DHT22;63966;47.914;22.266;2023-04-09T16:27:22;11.82;49.51
75387;DHT22;63966;47.914;22.266;2023-04-09T16:30:25;11.70;50.43
75387;DHT22;63966;47.914;22.266;2023-04-09T16:33:29;11.51;51.09
75387;DHT22;63966;47.914;22.266;2023-04-09T16:36:33;11.39;52.05
75387;DHT22;63966;47.914;22.266;2023-04-09T16:39:39;11.31;52.57
75387;DHT22;63966;47.914;22.266;2023-04-09T16:42:43;11.15;53.11
75387;DHT22;63966;47.914;22.266;2023-04-09T16:45:46;11.06;53.25
75387;DHT22;63966;47.914;22.266;2023-04-09T16:48:50;10.84;53.85
75387;DHT22;63966;47.914;22.266;2023-04-09T16:51:54;10.76;53.73
75387;DHT22;63966;47.914;22.266;2023-04-09T16:54:59;10.66;53.83
75387;DHT22;63966;47.914;22.266;2023-04-09T16:58:03;10.70;54.14
75387;DHT22;63966;47.914;22.266;2023-04-09T17:01:07;10.66;54.21
75387;DHT22;63966;47.914;22.266;2023-04-09T17:04:10;10.55;54.13
75387;DHT22;63966;47.914;22.266;2023-04-09T17:07:14;10.42;54.61
75387;DHT22;63966;47.914;22.266;2023-04-09T17:10:19;10.28;54.99
75387;DHT22;63966;47.914;22.266;2023-04-09T17:13:23;10.16;56.11
75387;DHT22;63966;47.914;22.266;2023-04-09T17:16:26;10.01;56.27
75387;DHT22;63966;47.914;22.266;2023-04-09T17:19:33;9.91;56.81
75387;DHT22;63966;47.914;22.266;2023-04-09T17:22:37;9.86;56.89
75387;DHT22;63966;47.914;22.266;2023-04-09T17:25:41;9.90;56.55
75387;DHT22;63966;47.914;22.266;2023-04-09T17:28:45;9.88;56.99
75387;DHT22;63966;47.914;22.266;2023-04-09T17:31:49;9.91;56.60
75387;DHT22;63966;47.914;22.266;2023-04-09T17:34:55;9.74;56.69
75387;DHT22;63966;47.914;22.266;2023-04-09T17:38:00;9.70;56.54
75387;DHT22;63966;47.914;22.266;2023-04-09T17:41:04;9.71;56.52
75387;DHT22;63966;47.914;22.266;2023-04-09T17:44:10;9.67;56.19
75387;DHT22;63966;47.914;22.266;2023-04-09T17:47:13;9.66;56.24
75387;DHT22;63966;47.914;22.266;2023-04-09T17:50:17;9.63;56.45
75387;DHT22;63966;47.914;22.266;2023-04-09T17:53:21;9.53;56.66
75387;DHT22;63966;47.914;22.266;2023-04-09T17:56:24;9.44;57.22
75387;DHT22;63966;47.914;22.266;2023-04-09T17:59:29;9.35;57.33
75387;DHT22;63966;47.914;22.266;2023-04-09T18:02:33;9.14;57.68
75387;DHT22;63966;47.914;22.266;2023-04-09T18:05:37;9.01;58.12
75387;DHT22;63966;47.914;22.266;2023-04-09T18:08:42;8.92;58.11
75387;DHT22;63966;47.914;22.266;2023-04-09T18:11:45;8.91;58.00
75387;DHT22;63966;47.914;22.266;2023-04-09T18:14:49;8.84;58.21
75387;DHT22;63966;47.914;22.266;2023-04-09T18:17:52;8.80;58.47
75387;DHT22;63966;47.914;22.266;2023-04-09T18:20:56;8.85;58.24
75387;DHT22;63966;47.914;22.266;2023-04-09T18:23:59;8.77;58.74
75387;DHT22;63966;47.914;22.266;2023-04-09T18:27:03;8.70;59.08
75387;DHT22;63966;47.914;22.266;2023-04-09T18:30:07;8.63;59.47
75387;DHT22;63966;47.914;22.266;2023-04-09T18:33:10;8.56;59.68
75387;DHT22;63966;47.914;22.266;2023-04-09T18:36:14;8.50;59.59
75387;DHT22;63966;47.914;22.266;2023-04-09T18:39:17;8.43;60.16
75387;DHT22;63966;47.914;22.266;2023-04-09T18:42:22;8.29;60.62
75387;DHT22;63966;47.914;22.266;2023-04-09T18:45:25;8.28;60.60
75387;DHT22;63966;47.914;22.266;2023-04-09T18:48:29;8.28;60.76
75387;DHT22;63966;47.914;22.266;2023-04-09T18:51:33;8.29;60.84
75387;DHT22;63966;47.914;22.266;2023-04-09T18:54:36;8.21;61.07
75387;DHT22;63966;47.914;22.266;2023-04-09T18:57:42;8.21;61.04
75387;DHT22;63966;47.914;22.266;2023-04-09T19:00:46;8.12;61.13
75387;DHT22;63966;47.914;22.266;2023-04-09T19:03:53;8.10;61.31
75387;DHT22;63966;47.914;22.266;2023-04-09T19:06:57;8.07;61.36
75387;DHT22;63966;47.914;22.266;2023-04-09T19:10:00;7.99;61.75
75387;DHT22;63966;47.914;22.266;2023-04-09T19:13:04;7.89;62.07
75387;DHT22;63966;47.914;22.266;2023-04-09T19:16:07;7.82;61.85
75387;DHT22;63966;47.914;22.266;2023-04-09T19:19:11;7.85;62.07
75387;DHT22;63966;47.914;22.266;2023-04-09T19:22:15;7.77;62.56
75387;DHT22;63966;47.914;22.266;2023-04-09T19:25:18;7.64;62.96
75387;DHT22;63966;47.914;22.266;2023-04-09T19:28:22;7.42;64.44
75387;DHT22;63966;47.914;22.266;2023-04-09T19:31:26;7.06;65.85